sensor_id;sensor_type;location;lat;lon;timestamp;temperature;humidity
6956;DHT22;50345;51.136;16.886;2023-11-19T00:01:35;3.70;99.90
6956;DHT22;50345;51.136;16.886;2023-11-19T00:04:01;3.70;99.90
6956;DHT22;50345;51.136;16.886;2023-11-19T00:06:26;3.70;99.90
6956;DHT22;50345;51.136;16.886;2023-11-19T00:08:53;3.70;99.90
6956;DHT22;50345;51.136;16.886;2023-11-19T00:11:18;3.60;99.90
6956;DHT22;50345;51.136;16.886;2023-11-19T00:13:44;3.60;99.90
6956;DHT22;50345;51.136;16.886;2023-11-19T00:16:09;3.60;99.90
6956;DHT22;50345;51.136;16.886;2023-11-19T00:18:35;3.60;99.90
6956;DHT22;50345;51.136;16.886;2023-11-19T00:21:02;3.60;99.90
6956;DHT22;50345;51.136;16.886;2023-11-19T00:23:28;3.60;99.90
6956;DHT22;50345;51.136;16.886;2023-11-19T00:25:53;3.50;99.90
6956;DHT22;50345;51.136;16.886;2023-11-19T00:28:19;3.50;99.90
6956;DHT22;50345;51.136;16.886;2023-11-19T00:30:44;3.50;99.90
6956;DHT22;50345;51.136;16.886;2023-11-19T00:33:10;3.50;99.90
6956;DHT22;50345;51.136;16.886;2023-11-19T00:35:36;3.50;99.90
6956;DHT22;50345;51.136;16.886;2023-11-19T00:38:01;3.50;99.90
6956;DHT22;50345;51.136;16.886;2023-11-19T00:40:28;3.60;99.90
6956;DHT22;50345;51.136;16.886;2023-11-19T00:42:54;3.60;99.90
6956;DHT22;50345;51.136;16.886;2023-11-19T00:45:19;3.60;99.90
6956;DHT22;50345;51.136;16.886;2023-11-19T00:47:45;3.50;99.90
6956;DHT22;50345;51.136;16.886;2023-11-19T00:50:10;3.50;99.90
6956;DHT22;50345;51.136;16.886;2023-11-19T00:52:37;3.50;99.90
6956;DHT22;50345;51.136;16.886;2023-11-19T00:55:03;3.50;99.90
6956;DHT22;50345;51.136;16.886;2023-11-19T00:57:30;3.50;99.90
6956;DHT22;50345;51.136;16.886;2023-11-19T00:59:58;3.50;99.90
6956;DHT22;50345;51.136;16.886;2023-11-19T01:02:24;3.50;99.90
6956;DHT22;50345;51.136;16.886;2023-11-19T01:04:49;3.50;99.90
6956;DHT22;50345;51.136;16.886;2023-11-19T01:07:15;3.50;99.90
6956;DHT22;50345;51.136;16.886;2023-11-19T01:09:44;3.50;99.90
6956;DHT22;50345;51.136;16.886;2023-11-19T01:12:10;3.50;99.90
6956;DHT22;50345;51.136;16.886;2023-11-19T01:14:36;3.50;99.90
6956;DHT22;50345;51.136;16.886;2023-11-19T01:17:01;3.50;99.90
6956;DHT22;50345;51.136;16.886;2023-11-19T01:19:27;3.50;99.90
6956;DHT22;50345;51.136;16.886;2023-11-19T01:21:54;3.40;99.90
6956;DHT22;50345;51.136;16.886;2023-11-19T01:24:20;3.50;99.90
6956;DHT22;50345;51.136;16.886;2023-11-19T01:26:46;3.50;99.90
6956;DHT22;50345;51.136;16.886;2023-11-19T01:29:13;3.40;99.90
6956;DHT22;50345;51.136;16.886;2023-11-19T01:31:42;3.40;99.90
6956;DHT22;50345;51.136;16.886;2023-11-19T01:34:08;3.40;99.90
6956;DHT22;50345;51.136;16.886;2023-11-19T01:36:34;3.40;99.90
6956;DHT22;50345;51.136;16.886;2023-11-19T01:38:59;3.30;99.90
6956;DHT22;50345;51.136;16.886;2023-11-19T01:41:25;3.30;99.90
6956;DHT22;50345;51.136;16.886;2023-11-19T01:43:51;3.30;99.90
6956;DHT22;50345;51.136;16.886;2023-11-19T01:46:16;3.30;99.90
6956;DHT22;50345;51.136;16.886;2023-11-19T01:48:45;3.20;99.90
6956;DHT22;50345;51.136;16.886;2023-11-19T01:51:12;3.20;99.90
6956;DHT22;50345;51.136;16.886;2023-11-19T01:53:39;3.20;99.90
6956;DHT22;50345;51.136;16.886;2023-11-19T01:56:07;3.20;99.90
6956;DHT22;50345;51.136;16.886;2023-11-19T01:58:36;3.10;99.90
6956;DHT22;50345;51.136;16.886;2023-11-19T02:01:05;3.10;99.90
6956;DHT22;50345;51.136;16.886;2023-11-19T02:03:34;3.10;99.90
6956;DHT22;50345;51.136;16.886;2023-11-19T02:06:00;3.10;99.90
6956;DHT22;50345;51.136;16.886;2023-11-19T02:08:26;3.10;99.90
6956;DHT22;50345;51.136;16.886;2023-11-19T02:10:52;3.10;99.90
6956;DHT22;50345;51.136;16.886;2023-11-19T02:13:18;3.20;99.90
6956;DHT22;50345;51.136;16.886;2023-11-19T02:15:44;3.20;99.90
6956;DHT22;50345;51.136;16.886;2023-11-19T02:18:26;3.20;99.90
6956;DHT22;50345;51.136;16.886;2023-11-19T02:20:58;3.20;99.90
6956;DHT22;50345;51.136;16.886;2023-11-19T02:23:26;3.30;99.90
6956;DHT22;50345;51.136;16.886;2023-11-19T02:26:03;3.20;99.90
6956;DHT22;50345;51.136;16.886;2023-11-19T02:28:32;3.20;99.90
6956;DHT22;50345;51.136;16.886;2023-11-19T02:30:58;3.20;99.90
6956;DHT22;50345;51.136;16.886;2023-11-19T02:33:24;3.20;99.90
6956;DHT22;50345;51.136;16.886;2023-11-19T02:35:50;3.20;99.90
6956;DHT22;50345;51.136;16.886;2023-11-19T02:38:16;3.20;99.90
6956;DHT22;50345;51.136;16.886;2023-11-19T02:40:42;3.10;99.90
6956;DHT22;50345;51.136;16.886;2023-11-19T02:43:08;3.10;99.90
6956;DHT22;50345;51.136;16.886;2023-11-19T02:45:34;3.10;99.90
6956;DHT22;50345;51.136;16.886;2023-11-19T02:48:00;3.10;99.90
6956;DHT22;50345;51.136;16.886;2023-11-19T02:50:28;3.10;99.90
6956;DHT22;50345;51.136;16.886;2023-11-19T02:52:55;3.10;99.90
6956;DHT22;50345;51.136;16.886;2023-11-19T02:55:24;3.10;99.90
6956;DHT22;50345;51.136;16.886;2023-11-19T02:57:51;3.10;99.90
6956;DHT22;50345;51.136;16.886;2023-11-19T03:00:20;3.10;99.90
6956;DHT22;50345;51.136;16.886;2023-11-19T03:03:01;3.20;99.90
6956;DHT22;50345;51.136;16.886;2023-11-19T03:05:46;3.20;99.90
6956;DHT22;50345;51.136;16.886;2023-11-19T03:08:12;3.20;99.90
6956;DHT22;50345;51.136;16.886;2023-11-19T03:10:38;3.20;99.90
6956;DHT22;50345;51.136;16.886;2023-11-19T03:13:04;3.20;99.90
6956;DHT22;50345;51.136;16.886;2023-11-19T03:15:29;3.10;99.90
6956;DHT22;50345;51.136;16.886;2023-11-19T03:17:55;3.10;99.90
6956;DHT22;50345;51.136;16.886;2023-11-19T03:20:21;3.10;99.90
6956;DHT22;50345;51.136;16.886;2023-11-19T03:22:48;3.10;99.90
6956;DHT22;50345;51.136;16.886;2023-11-19T03:25:16;3.10;99.90
6956;DHT22;50345;51.136;16.886;2023-11-19T03:27:41;3.10;99.90
6956;DHT22;50345;51.136;16.886;2023-11-19T03:30:08;3.10;99.90
6956;DHT22;50345;51.136;16.886;2023-11-19T03:32:35;3.00;99.90
6956;DHT22;50345;51.136;16.886;2023-11-19T03:35:01;3.00;99.90
6956;DHT22;50345;51.136;16.886;2023-11-19T03:37:27;3.00;99.90
6956;DHT22;50345;51.136;16.886;2023-11-19T03:39:56;3.00;99.90
6956;DHT22;50345;51.136;16.886;2023-11-19T03:42:27;3.00;99.90
6956;DHT22;50345;51.136;16.886;2023-11-19T03:44:53;3.00;99.90
6956;DHT22;50345;51.136;16.886;2023-11-19T03:47:19;2.90;99.90
6956;DHT22;50345;51.136;16.886;2023-11-19T03:49:49;2.90;99.90
6956;DHT22;50345;51.136;16.886;2023-11-19T03:52:15;2.90;99.90
6956;DHT22;50345;51.136;16.886;2023-11-19T03:54:40;2.90;99.90
6956;DHT22;50345;51.136;16.886;2023-11-19T03:57:06;2.90;99.90
6956;DHT22;50345;51.136;16.886;2023-11-19T03:59:31;2.90;99.90
6956;DHT22;50345;51.136;16.886;2023-11-19T04:01:59;2.90;99.90
6956;DHT22;50345;51.136;16.886;2023-11-19T04:04:26;2.90;99.90
6956;DHT22;50345;51.136;16.886;2023-11-19T04:06:53;2.90;99.90
6956;DHT22;50345;51.136;16.886;2023-11-19T04:09:18;2.90;99.90
6956;DHT22;50345;51.136;16.886;2023-11-19T04:11:44;2.90;99.90
6956;DHT22;50345;51.136;16.886;2023-11-19T04:14:12;2.90;99.90
6956;DHT22;50345;51.136;16.886;2023-11-19T04:16:38;3.00;99.90
6956;DHT22;50345;51.136;16.886;2023-11-19T04:19:04;3.00;99.90
6956;DHT22;50345;51.136;16.886;2023-11-19T04:21:30;3.10;99.90
6956;DHT22;50345;51.136;16.886;2023-11-19T04:23:56;3.00;99.90
6956;DHT22;50345;51.136;16.886;2023-11-19T04:26:21;3.00;99.90
6956;DHT22;50345;51.136;16.886;2023-11-19T04:28:47;3.00;99.90
6956;DHT22;50345;51.136;16.886;2023-11-19T04:31:17;3.00;99.90
6956;DHT22;50345;51.136;16.886;2023-11-19T04:33:43;3.00;99.90
6956;DHT22;50345;51.136;16.886;2023-11-19T04:36:10;3.00;99.90
6956;DHT22;50345;51.136;16.886;2023-11-19T04:38:35;3.00;99.90
6956;DHT22;50345;51.136;16.886;2023-11-19T04:41:02;3.00;99.90
6956;DHT22;50345;51.136;16.886;2023-11-19T04:43:31;3.00;99.90
6956;DHT22;50345;51.136;16.886;2023-11-19T04:45:56;3.00;99.90
6956;DHT22;50345;51.136;16.886;2023-11-19T04:48:23;3.00;99.90
6956;DHT22;50345;51.136;16.886;2023-11-19T04:50:48;3.00;99.90
6956;DHT22;50345;51.136;16.886;2023-11-19T04:53:14;3.00;99.90
6956;DHT22;50345;51.136;16.886;2023-11-19T04:55:41;3.10;99.90
6956;DHT22;50345;51.136;16.886;2023-11-19T04:58:06;3.10;99.90
6956;DHT22;50345;51.136;16.886;2023-11-19T05:00:32;3.10;99.90
6956;DHT22;50345;51.136;16.886;2023-11-19T05:02:58;3.20;99.90
6956;DHT22;50345;51.136;16.886;2023-11-19T05:05:24;3.20;99.90
6956;DHT22;50345;51.136;16.886;2023-11-19T05:07:49;3.10;99.90
6956;DHT22;50345;51.136;16.886;2023-11-19T05:10:15;3.20;99.90
6956;DHT22;50345;51.136;16.886;2023-11-19T05:12:40;3.20;99.90
6956;DHT22;50345;51.136;16.886;2023-11-19T05:15:06;3.10;99.90
6956;DHT22;50345;51.136;16.886;2023-11-19T05:17:33;3.10;99.90
6956;DHT22;50345;51.136;16.886;2023-11-19T05:19:58;3.10;99.90
6956;DHT22;50345;51.136;16.886;2023-11-19T05:22:24;3.10;99.90
6956;DHT22;50345;51.136;16.886;2023-11-19T05:24:49;3.10;99.90
6956;DHT22;50345;51.136;16.886;2023-11-19T05:27:15;3.10;99.90
6956;DHT22;50345;51.136;16.886;2023-11-19T05:29:41;3.10;99.90
6956;DHT22;50345;51.136;16.886;2023-11-19T05:32:08;3.20;99.90
6956;DHT22;50345;51.136;16.886;2023-11-19T05:34:33;3.20;99.90
6956;DHT22;50345;51.136;16.886;2023-11-19T05:36:59;3.20;99.90
6956;DHT22;50345;51.136;16.886;2023-11-19T05:39:25;3.20;99.90
6956;DHT22;50345;51.136;16.886;2023-11-19T05:41:51;3.30;99.90
6956;DHT22;50345;51.136;16.886;2023-11-19T05:44:17;3.30;99.90
6956;DHT22;50345;51.136;16.886;2023-11-19T05:46:42;3.30;99.90
6956;DHT22;50345;51.136;16.886;2023-11-19T05:49:09;3.30;99.90
6956;DHT22;50345;51.136;16.886;2023-11-19T05:51:38;3.30;99.90
6956;DHT22;50345;51.136;16.886;2023-11-19T05:54:05;3.30;99.90
6956;DHT22;50345;51.136;16.886;2023-11-19T05:56:32;3.30;99.90
6956;DHT22;50345;51.136;16.886;2023-11-19T05:58:58;3.30;99.90
6956;DHT22;50345;51.136;16.886;2023-11-19T06:01:26;3.30;99.90
6956;DHT22;50345;51.136;16.886;2023-11-19T06:03:52;3.40;99.90
6956;DHT22;50345;51.136;16.886;2023-11-19T06:06:18;3.40;99.90
6956;DHT22;50345;51.136;16.886;2023-11-19T06:08:44;3.40;99.90
6956;DHT22;50345;51.136;16.886;2023-11-19T06:11:10;3.40;99.90
6956;DHT22;50345;51.136;16.886;2023-11-19T06:15:23;3.40;99.90
6956;DHT22;50345;51.136;16.886;2023-11-19T06:17:48;3.50;99.90
6956;DHT22;50345;51.136;16.886;2023-11-19T06:20:14;3.50;99.90
6956;DHT22;50345;51.136;16.886;2023-11-19T06:22:40;3.40;99.90
6956;DHT22;50345;51.136;16.886;2023-11-19T06:25:08;3.40;99.90
6956;DHT22;50345;51.136;16.886;2023-11-19T06:27:33;3.50;99.90
6956;DHT22;50345;51.136;16.886;2023-11-19T06:29:59;3.50;99.90
6956;DHT22;50345;51.136;16.886;2023-11-19T06:32:25;3.50;99.90
6956;DHT22;50345;51.136;16.886;2023-11-19T06:34:50;3.60;99.90
6956;DHT22;50345;51.136;16.886;2023-11-19T06:37:16;3.60;99.90
6956;DHT22;50345;51.136;16.886;2023-11-19T06:39:41;3.60;99.90
6956;DHT22;50345;51.136;16.886;2023-11-19T06:42:07;3.60;99.90
6956;DHT22;50345;51.136;16.886;2023-11-19T06:44:33;3.70;99.90
6956;DHT22;50345;51.136;16.886;2023-11-19T06:46:58;3.70;99.90
6956;DHT22;50345;51.136;16.886;2023-11-19T06:49:24;3.70;99.90
6956;DHT22;50345;51.136;16.886;2023-11-19T06:51:50;3.70;99.90
6956;DHT22;50345;51.136;16.886;2023-11-19T06:54:15;3.80;99.90
6956;DHT22;50345;51.136;16.886;2023-11-19T06:56:41;3.80;99.90
6956;DHT22;50345;51.136;16.886;2023-11-19T06:59:07;3.80;99.90
6956;DHT22;50345;51.136;16.886;2023-11-19T07:01:36;3.80;99.90
6956;DHT22;50345;51.136;16.886;2023-11-19T07:04:02;3.80;99.90
6956;DHT22;50345;51.136;16.886;2023-11-19T07:06:35;3.80;99.90
6956;DHT22;50345;51.136;16.886;2023-11-19T07:09:02;3.80;99.90
6956;DHT22;50345;51.136;16.886;2023-11-19T07:11:35;3.80;99.90
6956;DHT22;50345;51.136;16.886;2023-11-19T07:14:02;3.80;99.90
6956;DHT22;50345;51.136;16.886;2023-11-19T07:16:28;3.90;99.90
6956;DHT22;50345;51.136;16.886;2023-11-19T07:18:53;3.90;99.90
6956;DHT22;50345;51.136;16.886;2023-11-19T07:21:19;3.90;99.90
6956;DHT22;50345;51.136;16.886;2023-11-19T07:23:45;4.00;99.90
6956;DHT22;50345;51.136;16.886;2023-11-19T07:26:12;4.00;99.90
6956;DHT22;50345;51.136;16.886;2023-11-19T07:28:38;4.10;99.90
6956;DHT22;50345;51.136;16.886;2023-11-19T07:31:05;4.10;99.90
6956;DHT22;50345;51.136;16.886;2023-11-19T07:33:33;4.10;99.90
6956;DHT22;50345;51.136;16.886;2023-11-19T07:35:59;4.10;99.90
6956;DHT22;50345;51.136;16.886;2023-11-19T07:38:24;4.10;99.90
6956;DHT22;50345;51.136;16.886;2023-11-19T07:40:50;4.10;99.90
6956;DHT22;50345;51.136;16.886;2023-11-19T07:43:15;4.10;99.90
6956;DHT22;50345;51.136;16.886;2023-11-19T07:45:41;4.20;99.90
6956;DHT22;50345;51.136;16.886;2023-11-19T07:48:09;4.20;99.90
6956;DHT22;50345;51.136;16.886;2023-11-19T07:50:35;4.20;99.90
6956;DHT22;50345;51.136;16.886;2023-11-19T07:53:01;4.20;99.90
6956;DHT22;50345;51.136;16.886;2023-11-19T07:55:29;4.30;99.90
6956;DHT22;50345;51.136;16.886;2023-11-19T07:57:55;4.30;99.90
6956;DHT22;50345;51.136;16.886;2023-11-19T08:00:21;4.30;99.90
6956;DHT22;50345;51.136;16.886;2023-11-19T08:02:46;4.30;99.90
6956;DHT22;50345;51.136;16.886;2023-11-19T08:05:12;4.30;99.90
6956;DHT22;50345;51.136;16.886;2023-11-19T08:07:37;4.30;99.90
6956;DHT22;50345;51.136;16.886;2023-11-19T08:10:04;4.30;99.90
6956;DHT22;50345;51.136;16.886;2023-11-19T08:12:31;4.30;99.90
6956;DHT22;50345;51.136;16.886;2023-11-19T08:14:56;4.30;99.90
6956;DHT22;50345;51.136;16.886;2023-11-19T08:17:24;4.30;99.90
6956;DHT22;50345;51.136;16.886;2023-11-19T08:19:49;4.30;99.90
6956;DHT22;50345;51.136;16.886;2023-11-19T08:22:15;4.20;99.90
6956;DHT22;50345;51.136;16.886;2023-11-19T08:24:42;4.10;99.90
6956;DHT22;50345;51.136;16.886;2023-11-19T08:27:08;4.10;99.90
6956;DHT22;50345;51.136;16.886;2023-11-19T08:29:33;4.00;99.90
6956;DHT22;50345;51.136;16.886;2023-11-19T08:32:00;3.90;99.90
6956;DHT22;50345;51.136;16.886;2023-11-19T08:34:27;3.80;99.90
6956;DHT22;50345;51.136;16.886;2023-11-19T08:36:52;3.70;99.90
6956;DHT22;50345;51.136;16.886;2023-11-19T08:39:19;3.60;99.90
6956;DHT22;50345;51.136;16.886;2023-11-19T08:41:46;3.60;99.90
6956;DHT22;50345;51.136;16.886;2023-11-19T08:44:12;3.60;99.90
6956;DHT22;50345;51.136;16.886;2023-11-19T08:46:38;3.50;99.90
6956;DHT22;50345;51.136;16.886;2023-11-19T08:49:05;3.40;99.90
6956;DHT22;50345;51.136;16.886;2023-11-19T08:51:31;3.40;99.90
6956;DHT22;50345;51.136;16.886;2023-11-19T08:53:56;3.40;99.90
6956;DHT22;50345;51.136;16.886;2023-11-19T08:56:23;3.40;99.90
6956;DHT22;50345;51.136;16.886;2023-11-19T08:58:48;3.40;99.90
6956;DHT22;50345;51.136;16.886;2023-11-19T09:01:14;3.40;99.90
6956;DHT22;50345;51.136;16.886;2023-11-19T09:03:39;3.40;99.90
6956;DHT22;50345;51.136;16.886;2023-11-19T09:06:05;3.40;99.90
6956;DHT22;50345;51.136;16.886;2023-11-19T09:08:31;3.50;99.90
6956;DHT22;50345;51.136;16.886;2023-11-19T09:10:57;3.50;99.90
6956;DHT22;50345;51.136;16.886;2023-11-19T09:13:22;3.60;99.90
6956;DHT22;50345;51.136;16.886;2023-11-19T09:15:48;3.60;99.90
6956;DHT22;50345;51.136;16.886;2023-11-19T09:18:14;3.60;99.90
6956;DHT22;50345;51.136;16.886;2023-11-19T09:20:39;3.70;99.90
6956;DHT22;50345;51.136;16.886;2023-11-19T09:23:05;3.70;99.90
6956;DHT22;50345;51.136;16.886;2023-11-19T09:25:31;3.70;99.90
6956;DHT22;50345;51.136;16.886;2023-11-19T09:27:57;3.80;99.90
6956;DHT22;50345;51.136;16.886;2023-11-19T09:30:23;3.80;99.90
6956;DHT22;50345;51.136;16.886;2023-11-19T09:32:48;3.90;99.90
6956;DHT22;50345;51.136;16.886;2023-11-19T09:35:14;3.90;99.90
6956;DHT22;50345;51.136;16.886;2023-11-19T09:37:41;3.90;99.90
6956;DHT22;50345;51.136;16.886;2023-11-19T09:40:07;3.90;99.90
6956;DHT22;50345;51.136;16.886;2023-11-19T09:42:42;3.90;99.90
6956;DHT22;50345;51.136;16.886;2023-11-19T09:45:16;3.90;99.90
6956;DHT22;50345;51.136;16.886;2023-11-19T09:47:45;3.90;99.90
6956;DHT22;50345;51.136;16.886;2023-11-19T09:50:18;4.00;99.90
6956;DHT22;50345;51.136;16.886;2023-11-19T09:52:45;4.00;99.90
6956;DHT22;50345;51.136;16.886;2023-11-19T09:55:11;4.00;99.90
6956;DHT22;50345;51.136;16.886;2023-11-19T09:57:38;4.10;99.90
6956;DHT22;50345;51.136;16.886;2023-11-19T10:00:05;4.10;99.90
6956;DHT22;50345;51.136;16.886;2023-11-19T10:02:34;4.10;99.90
6956;DHT22;50345;51.136;16.886;2023-11-19T10:05:05;4.20;99.90
6956;DHT22;50345;51.136;16.886;2023-11-19T10:07:32;4.20;99.90
6956;DHT22;50345;51.136;16.886;2023-11-19T10:10:04;4.30;99.90
6956;DHT22;50345;51.136;16.886;2023-11-19T10:12:30;4.30;99.90
6956;DHT22;50345;51.136;16.886;2023-11-19T10:14:59;4.30;99.90
6956;DHT22;50345;51.136;16.886;2023-11-19T10:17:34;4.30;99.90
6956;DHT22;50345;51.136;16.886;2023-11-19T10:20:00;4.40;99.90
6956;DHT22;50345;51.136;16.886;2023-11-19T10:22:27;4.40;99.90
6956;DHT22;50345;51.136;16.886;2023-11-19T10:24:53;4.50;99.90
6956;DHT22;50345;51.136;16.886;2023-11-19T10:27:19;4.50;99.90
6956;DHT22;50345;51.136;16.886;2023-11-19T10:29:46;4.60;99.90
6956;DHT22;50345;51.136;16.886;2023-11-19T10:32:12;4.60;99.90
6956;DHT22;50345;51.136;16.886;2023-11-19T10:34:39;4.70;99.90
6956;DHT22;50345;51.136;16.886;2023-11-19T10:37:05;4.70;99.90
6956;DHT22;50345;51.136;16.886;2023-11-19T10:39:53;4.80;99.90
6956;DHT22;50345;51.136;16.886;2023-11-19T10:42:22;4.90;99.90
6956;DHT22;50345;51.136;16.886;2023-11-19T10:44:48;5.00;99.90
6956;DHT22;50345;51.136;16.886;2023-11-19T10:47:14;5.00;99.90
6956;DHT22;50345;51.136;16.886;2023-11-19T10:49:40;5.00;99.90
6956;DHT22;50345;51.136;16.886;2023-11-19T10:52:08;4.90;99.90
6956;DHT22;50345;51.136;16.886;2023-11-19T10:54:34;4.90;99.90
6956;DHT22;50345;51.136;16.886;2023-11-19T10:57:01;4.90;99.90
6956;DHT22;50345;51.136;16.886;2023-11-19T10:59:30;4.90;99.90
6956;DHT22;50345;51.136;16.886;2023-11-19T11:01:57;4.90;99.90
6956;DHT22;50345;51.136;16.886;2023-11-19T11:04:24;4.90;99.90
6956;DHT22;50345;51.136;16.886;2023-11-19T11:06:54;4.90;99.90
6956;DHT22;50345;51.136;16.886;2023-11-19T11:09:21;4.80;99.90
6956;DHT22;50345;51.136;16.886;2023-11-19T11:11:50;4.80;99.90
6956;DHT22;50345;51.136;16.886;2023-11-19T11:14:18;4.80;99.90
6956;DHT22;50345;51.136;16.886;2023-11-19T11:16:46;4.80;99.90
6956;DHT22;50345;51.136;16.886;2023-11-19T11:19:15;4.80;99.90
6956;DHT22;50345;51.136;16.886;2023-11-19T11:21:45;4.90;99.90
6956;DHT22;50345;51.136;16.886;2023-11-19T11:27:57;4.90;99.90
6956;DHT22;50345;51.136;16.886;2023-11-19T11:30:29;5.00;99.90
6956;DHT22;50345;51.136;16.886;2023-11-19T11:38:08;5.20;99.90
6956;DHT22;50345;51.136;16.886;2023-11-19T11:40:34;5.30;99.90
6956;DHT22;50345;51.136;16.886;2023-11-19T11:43:00;5.30;99.90
6956;DHT22;50345;51.136;16.886;2023-11-19T11:45:40;5.40;99.90
6956;DHT22;50345;51.136;16.886;2023-11-19T11:48:15;5.40;99.90
6956;DHT22;50345;51.136;16.886;2023-11-19T11:50:56;5.50;99.90
6956;DHT22;50345;51.136;16.886;2023-11-19T11:53:23;5.50;99.90
6956;DHT22;50345;51.136;16.886;2023-11-19T11:58:25;5.50;99.90
6956;DHT22;50345;51.136;16.886;2023-11-19T12:00:51;5.50;99.90
6956;DHT22;50345;51.136;16.886;2023-11-19T12:03:20;5.40;99.90
6956;DHT22;50345;51.136;16.886;2023-11-19T12:05:47;5.40;99.90
6956;DHT22;50345;51.136;16.886;2023-11-19T12:08:14;5.50;99.90
6956;DHT22;50345;51.136;16.886;2023-11-19T12:10:51;5.60;99.90
6956;DHT22;50345;51.136;16.886;2023-11-19T12:13:19;5.60;99.90
6956;DHT22;50345;51.136;16.886;2023-11-19T12:18:24;5.80;99.90
6956;DHT22;50345;51.136;16.886;2023-11-19T12:20:50;5.80;99.90
6956;DHT22;50345;51.136;16.886;2023-11-19T12:23:16;5.90;99.90
6956;DHT22;50345;51.136;16.886;2023-11-19T12:25:41;6.00;99.90
6956;DHT22;50345;51.136;16.886;2023-11-19T12:28:12;6.10;99.90
6956;DHT22;50345;51.136;16.886;2023-11-19T12:30:38;6.20;99.90
6956;DHT22;50345;51.136;16.886;2023-11-19T12:33:08;6.30;99.90
6956;DHT22;50345;51.136;16.886;2023-11-19T12:35:42;6.20;99.90
6956;DHT22;50345;51.136;16.886;2023-11-19T12:38:08;6.30;99.90
6956;DHT22;50345;51.136;16.886;2023-11-19T12:40:34;6.30;99.90
6956;DHT22;50345;51.136;16.886;2023-11-19T12:42:59;6.30;99.90
6956;DHT22;50345;51.136;16.886;2023-11-19T12:45:34;6.40;99.90
6956;DHT22;50345;51.136;16.886;2023-11-19T12:48:07;6.40;99.90
6956;DHT22;50345;51.136;16.886;2023-11-19T12:50:51;6.40;99.90
6956;DHT22;50345;51.136;16.886;2023-11-19T12:53:23;6.40;99.90
6956;DHT22;50345;51.136;16.886;2023-11-19T12:55:48;6.50;99.90
6956;DHT22;50345;51.136;16.886;2023-11-19T12:58:34;6.70;99.90
6956;DHT22;50345;51.136;16.886;2023-11-19T13:01:01;6.80;99.90
6956;DHT22;50345;51.136;16.886;2023-11-19T13:03:31;6.80;99.90
6956;DHT22;50345;51.136;16.886;2023-11-19T13:06:04;6.90;99.90
6956;DHT22;50345;51.136;16.886;2023-11-19T13:08:40;6.90;99.90
6956;DHT22;50345;51.136;16.886;2023-11-19T13:11:07;7.00;99.90
6956;DHT22;50345;51.136;16.886;2023-11-19T13:16:17;7.00;99.90
6956;DHT22;50345;51.136;16.886;2023-11-19T13:18:44;7.10;99.90
6956;DHT22;50345;51.136;16.886;2023-11-19T13:21:10;7.10;99.90
6956;DHT22;50345;51.136;16.886;2023-11-19T13:23:35;7.20;99.90
6956;DHT22;50345;51.136;16.886;2023-11-19T13:26:01;7.20;99.90
6956;DHT22;50345;51.136;16.886;2023-11-19T13:28:26;7.30;99.90
6956;DHT22;50345;51.136;16.886;2023-11-19T13:30:52;7.50;99.90
6956;DHT22;50345;51.136;16.886;2023-11-19T13:33:18;7.70;99.90
6956;DHT22;50345;51.136;16.886;2023-11-19T13:35:44;7.90;99.90
6956;DHT22;50345;51.136;16.886;2023-11-19T13:38:09;8.00;99.90
6956;DHT22;50345;51.136;16.886;2023-11-19T13:40:35;8.10;99.90
6956;DHT22;50345;51.136;16.886;2023-11-19T13:43:01;8.10;99.90
6956;DHT22;50345;51.136;16.886;2023-11-19T13:45:26;8.20;99.90
6956;DHT22;50345;51.136;16.886;2023-11-19T13:47:52;8.40;99.90
6956;DHT22;50345;51.136;16.886;2023-11-19T13:50:17;8.50;99.90
6956;DHT22;50345;51.136;16.886;2023-11-19T13:52:44;8.60;99.90
6956;DHT22;50345;51.136;16.886;2023-11-19T13:55:13;8.70;99.90
6956;DHT22;50345;51.136;16.886;2023-11-19T13:57:39;8.70;99.90
6956;DHT22;50345;51.136;16.886;2023-11-19T14:00:07;8.80;99.90
6956;DHT22;50345;51.136;16.886;2023-11-19T14:02:41;8.90;99.90
6956;DHT22;50345;51.136;16.886;2023-11-19T14:05:08;8.90;99.90
6956;DHT22;50345;51.136;16.886;2023-11-19T14:07:33;8.90;99.90
6956;DHT22;50345;51.136;16.886;2023-11-19T14:09:59;8.80;99.90
6956;DHT22;50345;51.136;16.886;2023-11-19T14:12:24;8.70;99.90
6956;DHT22;50345;51.136;16.886;2023-11-19T14:14:50;8.60;99.90
6956;DHT22;50345;51.136;16.886;2023-11-19T14:17:16;8.50;99.90
6956;DHT22;50345;51.136;16.886;2023-11-19T14:19:42;8.30;99.90
6956;DHT22;50345;51.136;16.886;2023-11-19T14:22:08;8.20;99.90
6956;DHT22;50345;51.136;16.886;2023-11-19T14:24:34;8.00;99.90
6956;DHT22;50345;51.136;16.886;2023-11-19T14:27:00;8.00;99.90
6956;DHT22;50345;51.136;16.886;2023-11-19T14:29:26;7.90;99.90
6956;DHT22;50345;51.136;16.886;2023-11-19T14:31:52;7.80;99.90
6956;DHT22;50345;51.136;16.886;2023-11-19T14:34:21;7.70;99.90
6956;DHT22;50345;51.136;16.886;2023-11-19T14:36:47;7.70;99.90
6956;DHT22;50345;51.136;16.886;2023-11-19T14:39:13;7.60;99.90
6956;DHT22;50345;51.136;16.886;2023-11-19T14:41:38;7.60;99.90
6956;DHT22;50345;51.136;16.886;2023-11-19T14:44:04;7.60;99.90
6956;DHT22;50345;51.136;16.886;2023-11-19T14:46:30;7.60;99.90
6956;DHT22;50345;51.136;16.886;2023-11-19T14:48:56;7.60;99.90
6956;DHT22;50345;51.136;16.886;2023-11-19T14:51:22;7.50;99.90
6956;DHT22;50345;51.136;16.886;2023-11-19T14:53:47;7.50;99.90
6956;DHT22;50345;51.136;16.886;2023-11-19T14:56:13;7.50;99.90
6956;DHT22;50345;51.136;16.886;2023-11-19T14:58:39;7.50;99.90
6956;DHT22;50345;51.136;16.886;2023-11-19T15:01:05;7.50;99.90
6956;DHT22;50345;51.136;16.886;2023-11-19T15:03:31;7.50;99.90
6956;DHT22;50345;51.136;16.886;2023-11-19T15:05:58;7.60;99.90
6956;DHT22;50345;51.136;16.886;2023-11-19T15:08:23;7.60;99.90
6956;DHT22;50345;51.136;16.886;2023-11-19T15:10:49;7.70;99.90
6956;DHT22;50345;51.136;16.886;2023-11-19T15:13:15;7.80;99.90
6956;DHT22;50345;51.136;16.886;2023-11-19T15:15:40;7.80;99.90
6956;DHT22;50345;51.136;16.886;2023-11-19T15:18:06;7.90;99.90
6956;DHT22;50345;51.136;16.886;2023-11-19T15:20:31;7.90;99.90
6956;DHT22;50345;51.136;16.886;2023-11-19T15:22:57;8.00;99.90
6956;DHT22;50345;51.136;16.886;2023-11-19T15:25:23;8.10;99.90
6956;DHT22;50345;51.136;16.886;2023-11-19T15:27:49;8.10;99.90
6956;DHT22;50345;51.136;16.886;2023-11-19T15:30:15;8.20;99.90
6956;DHT22;50345;51.136;16.886;2023-11-19T15:32:41;8.20;99.90
6956;DHT22;50345;51.136;16.886;2023-11-19T15:35:08;8.20;99.90
6956;DHT22;50345;51.136;16.886;2023-11-19T15:37:35;8.30;99.90
6956;DHT22;50345;51.136;16.886;2023-11-19T15:40:00;8.40;99.90
6956;DHT22;50345;51.136;16.886;2023-11-19T15:42:29;8.50;99.90
6956;DHT22;50345;51.136;16.886;2023-11-19T15:44:54;8.50;99.90
6956;DHT22;50345;51.136;16.886;2023-11-19T15:47:20;8.60;99.90
6956;DHT22;50345;51.136;16.886;2023-11-19T15:49:46;8.60;99.90
6956;DHT22;50345;51.136;16.886;2023-11-19T15:52:14;8.60;99.90
6956;DHT22;50345;51.136;16.886;2023-11-19T15:54:40;8.70;99.90
6956;DHT22;50345;51.136;16.886;2023-11-19T15:57:06;8.70;99.90
6956;DHT22;50345;51.136;16.886;2023-11-19T15:59:32;8.70;99.90
6956;DHT22;50345;51.136;16.886;2023-11-19T16:01:58;8.70;99.90